createdAt,value
2023-01-03T00:00:24.919Z,1001.87
2023-01-03T00:01:24.889Z,1001.83
2023-01-03T00:02:24.921Z,1001.90
2023-01-03T00:03:24.875Z,1001.85
2023-01-03T00:04:27.607Z,1001.82
2023-01-03T00:05:24.846Z,1001.82
2023-01-03T00:06:24.857Z,1001.91
2023-01-03T00:07:24.868Z,1001.90
2023-01-03T00:08:24.821Z,1001.88
2023-01-03T00:09:24.853Z,1001.91
2023-01-03T00:10:24.831Z,1001.94
2023-01-03T00:11:24.801Z,1001.88
2023-01-03T00:12:30.443Z,1001.90
2023-01-03T00:13:26.778Z,1001.95
2023-01-03T00:14:24.791Z,1001.95
2023-01-03T00:15:24.768Z,1002.02
2023-01-03T00:16:24.787Z,1001.95
2023-01-03T00:17:24.814Z,1001.99
2023-01-03T00:18:24.752Z,1002.01
2023-01-03T00:19:24.745Z,1001.92
2023-01-03T00:20:24.755Z,1001.94
2023-01-03T00:21:24.714Z,1001.91
2023-01-03T00:22:24.726Z,1001.96
2023-01-03T00:23:24.718Z,1001.97
2023-01-03T00:24:24.699Z,1001.94
2023-01-03T00:25:24.684Z,1001.95
2023-01-03T00:27:04.861Z,1002.01
2023-01-03T00:28:05.728Z,1002.00
2023-01-03T00:29:04.843Z,1001.95
2023-01-03T00:30:04.853Z,1001.98
2023-01-03T00:31:04.902Z,1001.88
2023-01-03T00:32:04.824Z,1001.96
2023-01-03T00:33:04.820Z,1001.93
2023-01-03T00:34:04.808Z,1001.95
2023-01-03T00:35:05.643Z,1001.89
2023-01-03T00:36:04.807Z,1001.84
2023-01-03T00:37:04.804Z,1001.92
2023-01-03T00:38:06.711Z,1001.96
2023-01-03T00:39:05.911Z,1001.97
2023-01-03T00:40:05.860Z,1001.92
2023-01-03T00:41:05.862Z,1001.98
2023-01-03T00:42:05.843Z,1001.93
2023-01-03T21:26:11.527Z,1003.96
2023-01-03T21:27:11.548Z,1004.00
2023-01-03T21:28:11.497Z,1003.97
2023-01-03T21:29:11.499Z,1003.93
2023-01-03T21:30:11.490Z,1003.92
2023-01-03T21:31:11.581Z,1003.93
2023-01-03T21:32:11.542Z,1003.94
2023-01-03T21:33:12.570Z,1003.99
2023-01-03T21:34:12.553Z,1004.00
2023-01-03T21:35:12.537Z,1004.00
2023-01-03T21:36:15.233Z,1003.97
2023-01-03T21:37:13.521Z,1003.88
2023-01-03T21:38:12.563Z,1003.86
2023-01-03T21:39:12.512Z,1003.89
2023-01-03T21:40:12.521Z,1003.86
2023-01-03T21:41:12.500Z,1003.83
2023-01-03T21:42:12.492Z,1003.77
2023-01-03T21:43:12.496Z,1003.85
2023-01-03T21:44:12.479Z,1003.78
2023-01-03T21:45:12.506Z,1003.78
2023-01-03T21:46:12.686Z,1003.75
2023-01-03T21:47:12.457Z,1003.75
2023-01-03T21:48:12.464Z,1003.75
2023-01-03T21:49:13.021Z,1003.77
2023-01-03T21:50:12.464Z,1003.78
2023-01-03T21:51:12.420Z,1003.72
2023-01-03T21:52:12.428Z,1003.68
2023-01-03T21:53:12.427Z,1003.69
2023-01-03T21:54:12.536Z,1003.70
2023-01-03T21:55:12.384Z,1003.68
2023-01-03T21:56:12.375Z,1003.65
2023-01-03T21:57:15.206Z,1003.66
2023-01-03T21:58:13.372Z,1003.66
2023-01-03T21:59:12.550Z,1003.63
2023-01-03T22:00:12.360Z,1003.61
2023-01-03T22:01:12.462Z,1003.55
2023-01-03T22:02:12.488Z,1003.55
2023-01-03T22:03:12.425Z,1003.51
2023-01-03T22:04:12.346Z,1003.59
2023-01-03T22:05:12.310Z,1003.60
2023-01-03T22:06:12.661Z,1003.50
2023-01-03T22:07:12.293Z,1003.57
2023-01-03T22:08:12.299Z,1003.60
2023-01-03T22:09:12.296Z,1003.64
2023-01-03T22:10:12.434Z,1003.56
2023-01-03T22:11:12.274Z,1003.58
2023-01-03T22:12:15.318Z,1003.55
2023-01-03T22:13:12.255Z,1003.55
2023-01-03T22:14:12.247Z,1003.62
2023-01-03T22:15:12.717Z,1003.54
2023-01-03T22:16:12.223Z,1003.58
2023-01-03T22:17:12.211Z,1003.61
2023-01-03T22:18:12.203Z,1003.56
2023-01-03T22:19:12.196Z,1003.64
2023-01-03T22:20:12.183Z,1003.52
2023-01-03T22:21:13.180Z,1003.47
2023-01-03T22:22:12.214Z,1003.48
2023-01-03T22:23:12.164Z,1003.44
2023-01-03T22:24:12.178Z,1003.46
2023-01-03T22:25:12.172Z,1003.42
2023-01-03T22:26:12.133Z,1003.41
2023-01-03T22:27:12.124Z,1003.45
2023-01-03T22:28:12.105Z,1003.43
2023-01-03T22:29:12.114Z,1003.36
2023-01-03T22:30:12.107Z,1003.31
2023-01-03T22:31:12.088Z,1003.34
2023-01-03T22:32:12.124Z,1003.28
2023-01-03T22:33:12.088Z,1003.38
2023-01-03T22:34:12.063Z,1003.39
2023-01-03T22:35:12.055Z,1003.28
2023-01-03T22:36:12.052Z,1003.33
2023-01-03T22:37:12.038Z,1003.32
2023-01-03T22:38:12.036Z,1003.26
2023-01-03T22:39:12.020Z,1003.29
2023-01-03T22:40:12.052Z,1003.32
2023-01-03T22:41:12.017Z,1003.25
2023-01-03T22:42:17.702Z,1003.28
2023-01-03T22:43:14.002Z,1003.32
2023-01-03T22:44:11.989Z,1003.26
2023-01-03T22:45:12.665Z,1003.31
2023-01-03T22:46:12.758Z,1003.33
2023-01-03T22:47:11.962Z,1003.39
2023-01-03T22:48:12.591Z,1003.35
2023-01-03T22:49:11.973Z,1003.39
2023-01-03T22:50:11.946Z,1003.39
2023-01-03T22:51:11.976Z,1003.38
2023-01-03T22:52:11.916Z,1003.41
2023-01-03T22:53:11.916Z,1003.45
2023-01-03T22:54:11.902Z,1003.46
2023-01-03T22:55:11.923Z,1003.44
2023-01-03T22:56:11.894Z,1003.42
2023-01-03T22:57:11.901Z,1003.37
2023-01-03T22:58:11.874Z,1003.41
2023-01-03T22:59:11.866Z,1003.33
2023-01-03T23:00:11.855Z,1003.32
2023-01-03T23:01:11.933Z,1003.33
2023-01-03T23:02:11.997Z,1003.36
2023-01-03T23:03:11.849Z,1003.36
2023-01-03T23:04:11.931Z,1003.33
2023-01-03T23:05:11.823Z,1003.35
2023-01-03T23:06:11.813Z,1003.40
2023-01-03T23:07:11.812Z,1003.36
2023-01-03T23:08:11.796Z,1003.39
2023-01-03T23:09:11.793Z,1003.36
2023-01-03T23:10:11.796Z,1003.34
2023-01-03T23:11:11.766Z,1003.35
2023-01-03T23:12:11.836Z,1003.34
2023-01-03T23:13:11.744Z,1003.30
2023-01-03T23:14:11.775Z,1003.25
2023-01-03T23:15:11.740Z,1003.30
2023-01-03T23:16:11.787Z,1003.31
2023-01-03T23:17:11.797Z,1003.28
2023-01-03T23:18:11.725Z,1003.33
2023-01-03T23:19:11.734Z,1003.31
2023-01-03T23:20:11.695Z,1003.25
2023-01-03T23:21:11.691Z,1003.28
2023-01-03T23:22:11.690Z,1003.21
2023-01-03T23:23:11.664Z,1003.11
2023-01-03T23:24:11.658Z,1003.10
2023-01-03T23:25:11.674Z,1003.13
2023-01-03T23:26:11.638Z,1003.03
2023-01-03T23:27:11.635Z,1003.11
2023-01-03T23:28:12.588Z,1003.06
2023-01-03T23:29:11.636Z,1003.10
2023-01-03T23:30:11.623Z,1003.06
2023-01-03T23:31:11.662Z,1003.06
2023-01-03T23:32:11.603Z,1003.06
2023-01-03T23:33:11.586Z,1003.01
2023-01-03T23:34:11.599Z,1003.02
2023-01-03T23:35:11.568Z,1003.00
2023-01-03T23:36:11.566Z,1002.94
2023-01-03T23:37:11.555Z,1002.96
2023-01-03T23:38:11.542Z,1002.93
2023-01-03T23:39:11.535Z,1002.98
2023-01-03T23:40:11.528Z,1002.94
2023-01-03T23:41:11.528Z,1002.96
2023-01-03T23:42:11.516Z,1002.95
2023-01-03T23:43:11.496Z,1002.91
2023-01-03T23:44:11.494Z,1002.89
2023-01-03T23:45:11.518Z,1002.90
2023-01-03T23:46:11.747Z,1002.89
2023-01-03T23:47:12.792Z,1002.84
2023-01-03T23:48:12.465Z,1002.78
2023-01-03T23:49:11.459Z,1002.78
2023-01-03T23:50:11.446Z,1002.76
2023-01-03T23:51:11.460Z,1002.83
2023-01-03T23:52:11.456Z,1002.83
2023-01-03T23:53:11.457Z,1002.73
2023-01-03T23:54:11.425Z,1002.76
2023-01-03T23:55:12.840Z,1002.72
2023-01-03T23:56:12.418Z,1002.74
2023-01-03T23:57:11.466Z,1002.73
2023-01-03T23:58:11.395Z,1002.68
2023-01-03T23:59:11.375Z,1002.67
